KSAC

Sacramento Executive Airport

Sacramento, California, USA
METAR KSAC 150053Z 22011KT 10SM CLR 26/14 A2980 RMK AO2 SLP091 T02610139
Observed Flight Rules
Aug-15 @ 00:53 UTC (13 minutes ago) Visual Flight Rules
Wind Visibility Clouds
220° at 11 knots 10 miles
  • Clear skies
Temperatures Readings
Current 26°C / 79°F
Dewpoint 14°C / 57°F
Humidity 48%
Altimeter 29.8" Hg
Pressure 1009.1 hPa
Elevation 11
METAR KSAC 150053Z 22011KT 10SM CLR 26/14 A2980 RMK AO2 SLP091 T02610139
Observed Flight Rules
Aug-15 @ 00:53 UTC
(13 minutes ago)
VFR
Wind Visibility
220° at 11 knots 10 miles
Clouds
  • Clear skies
Temperature Dewpoint
26°C / 79°F 14°C / 57°F
Humidity Altimeter Pressure
48% 29.8" Hg 1009.1 hPa